Fairfield, Alabama
Current Conditions -  °F | °C
As of 6:53 PM on Thursday 27 Nov 2014 (Local Time) from KBHM Reporting Station
Clear Clear  
Wind Chill: 33°   Ceiling: Unl
Heat Index: 38°   Visibility: 10mi
Dew Point: 28°   Wind: 7mph
Humidity: 68%   Direction: 320°NW
Pressure: 30.44"   Gusts: NA
Location:  33.49°N, 86.91°W
Report Text: KBHM 280053Z 32006KT 10SM CLR 03/M02 A3044 RMK AO2 SLP312 T00331022
Loading
Personal Weather Stations






























Interactive Weather Map New forecast layout! Learn more

10-Day Weather Forecast

Advertisements
Track Severe Weather on mobile